Airfield :
LOGIN :

Register | Disclaimer

   EN    FR    IT 

 










Legend :    VFR   Marginal VFR   IFR   Intensive IFR   Very Intensive IFR
Visi :
Ceiling :
>= 8 km
>= 3000ft
5 to 8 km
1000 to 3000 ft
1500m to 5 km
500 to 1000 ft
800 to 1500m
200 to 500 ft
< 800m
< 200 ft
Symbols :   Thunderstorms  Fog  Heavy snow  Heavy precipitations  Wind > 20 kt
SIGMETs :     Misc.  Thunderstorms  Icing  Turbulence  Mountain Waves  Volcanic Ashes






- Airport Elevation : 325 ft
- IATA code : BES


LFRB - Brest

CURRENT METAR :
  • 080330Z AUTO 24018KT 4700 -RA BR OVC005/// ///TCU 13/12 Q1010 BECMG 30015G25KT 6000 NSW SCT015 SCT030

EXPIRED METARs :
  • 080300Z AUTO 23018KT 4400 -RA BR OVC004/// ///CB 13/12 Q1010 BECMG 30015G25KT 6000 NSW SCT015 SCT030
  • 080230Z AUTO 22020KT 4200 -RA BR OVC004/// ///TCU 12/12 Q1010 BECMG 30015G25KT 6000 NSW SCT015 SCT030
  • 080200Z AUTO 22019KT 6000 -RA OVC004/// ///TCU 12/12 Q1011 TEMPO 22020G35KT 2000 RADZ OVC003
  • 080130Z AUTO 22022KT 9999 -RA OVC003/// ///CB 12/12 Q1011
  • 080100Z AUTO 20018KT 7000 -RA OVC004 12/11 Q1011 TEMPO 22020G35KT 2000 RADZ

TAF TAF LFRB
Valid from the 08 at 00:00 until the 09 at 06:00 UTC


072300Z 0800/0906 22015G25KT 6000 RA BKN006
TEMPO 0800/0804 22020G35KT 2000 RADZ OVC003
BECMG 0804/0806 30015G25KT NSW SCT015 SCT030
BECMG 0813/0815 26022G40KT
TEMPO 0815/0906 SHRA SCT010 BKN018TCU
PROB30
TEMPO 0815/0824 TSRA BKN006 SCT012CB
TEMPO 0900/0906 33025G45KT
ATIS : +33 2 98 32 02 71



MET'MAP, your aeronautical weather chart ! - Copyright ORBIFLY December 2007 - Disclaimer

ORBIFLY MET'MAP TEAM :

Programming & Development : Alexandra Zaïnal
Concept & original design : Baudouin d'Aumeries
Assistance for programming : Marc-Olivier Méhu
Technical & hardware support : Manuel Goepfert

Contact : metmap@orbifly.com




SOURCES & CREDITS :

   NOAA